createdAt,value
2017-01-10T00:08:18.863Z,0
2017-01-10T00:18:30.605Z,0
2017-01-10T00:28:42.322Z,0
2017-01-10T00:38:54.035Z,0
2017-01-10T00:49:05.773Z,0
2017-01-10T00:59:17.462Z,0
2017-01-10T01:09:29.184Z,0
2017-01-10T01:19:40.956Z,0
2017-01-10T01:29:52.656Z,0
2017-01-10T01:40:04.389Z,0
2017-01-10T01:50:16.119Z,0
2017-01-10T02:00:27.823Z,0
2017-01-10T02:10:39.515Z,0
2017-01-10T02:20:51.263Z,0
2017-01-10T02:31:02.949Z,0
2017-01-10T02:41:14.608Z,0
2017-01-10T02:51:26.244Z,0
2017-01-10T03:01:37.878Z,0
2017-01-10T03:11:49.579Z,0
2017-01-10T03:22:01.265Z,0
2017-01-10T03:32:12.960Z,0
2017-01-10T03:42:24.686Z,0
2017-01-10T03:52:36.365Z,0
2017-01-10T04:02:48.025Z,0
2017-01-10T04:12:59.720Z,0
2017-01-10T04:23:11.433Z,0
2017-01-10T04:33:23.145Z,0
2017-01-10T04:43:34.868Z,0
2017-01-10T04:53:46.639Z,0
2017-01-10T05:03:58.457Z,0
2017-01-10T05:14:10.240Z,0
2017-01-10T05:24:21.990Z,0
2017-01-10T05:34:33.757Z,0
2017-01-10T05:44:45.498Z,0
2017-01-10T05:54:57.186Z,0
2017-01-10T06:05:08.886Z,0
2017-01-10T06:15:20.613Z,0
2017-01-10T06:25:32.389Z,0
2017-01-10T06:35:44.168Z,0
2017-01-10T06:45:55.924Z,0
2017-01-10T06:56:07.689Z,0
2017-01-10T07:06:19.472Z,0
2017-01-10T07:16:31.238Z,0
2017-01-10T07:26:43.096Z,0
2017-01-10T07:36:54.923Z,5
2017-01-10T07:47:06.709Z,5
2017-01-10T07:57:18.479Z,20
2017-01-10T08:07:30.314Z,30
2017-01-10T08:17:42.186Z,20
2017-01-10T08:27:53.951Z,35
2017-01-10T08:38:05.690Z,25
2017-01-10T08:48:17.419Z,30
2017-01-10T08:58:29.119Z,35
2017-01-10T09:08:40.761Z,50
2017-01-10T09:18:52.411Z,80
2017-01-10T09:29:04.039Z,80
2017-01-10T09:39:15.662Z,155
2017-01-10T09:49:27.205Z,210
2017-01-10T09:59:38.753Z,205
2017-01-10T10:09:50.233Z,245
2017-01-10T10:20:01.694Z,195
2017-01-10T10:30:13.110Z,150
2017-01-10T10:40:24.524Z,145
2017-01-10T10:50:35.970Z,300
2017-01-10T11:00:47.319Z,395
2017-01-10T11:10:58.573Z,445
2017-01-10T11:21:09.811Z,295
2017-01-10T11:31:21.027Z,250
2017-01-10T11:41:32.262Z,215
2017-01-10T11:51:43.608Z,265
2017-01-10T12:01:54.877Z,245
2017-01-10T12:22:17.274Z,285
2017-01-10T12:32:28.456Z,190
2017-01-10T12:42:39.681Z,175
2017-01-10T12:52:50.950Z,250
2017-01-10T13:03:02.297Z,130
2017-01-10T13:13:13.622Z,200
2017-01-10T13:23:24.956Z,160
2017-01-10T13:33:36.191Z,135
2017-01-10T13:43:47.462Z,155
2017-01-10T13:53:58.732Z,170
2017-01-10T14:04:10.110Z,125
2017-01-10T14:14:21.519Z,130
2017-01-10T14:24:32.946Z,145
2017-01-10T14:34:44.309Z,115
2017-01-10T14:44:55.723Z,80
2017-01-10T14:55:07.108Z,50
2017-01-10T15:05:18.511Z,40
2017-01-10T15:15:29.900Z,25
2017-01-10T15:25:41.263Z,10
2017-01-10T15:35:52.717Z,5
2017-01-10T15:46:04.196Z,0
2017-01-10T15:56:15.702Z,0
2017-01-10T16:06:27.222Z,0
2017-01-10T16:16:38.799Z,0
2017-01-10T16:26:50.295Z,0
2017-01-10T16:37:01.797Z,0
2017-01-10T16:47:13.353Z,0
2017-01-10T16:57:24.867Z,0
2017-01-10T17:07:36.381Z,0
2017-01-10T17:17:47.869Z,0
2017-01-10T17:27:59.307Z,0
2017-01-10T17:38:10.833Z,0
2017-01-10T17:48:22.247Z,0
2017-01-10T17:58:33.725Z,0
2017-01-10T18:08:45.186Z,0
2017-01-10T18:18:56.717Z,0
2017-01-10T18:29:08.239Z,0
2017-01-10T18:39:19.851Z,0
2017-01-10T18:49:31.468Z,0
2017-01-10T18:59:43.136Z,0
2017-01-10T19:09:54.887Z,0
2017-01-10T19:20:06.711Z,0
2017-01-10T19:30:18.400Z,0
2017-01-10T19:40:30.038Z,0
2017-01-10T19:50:41.720Z,0
2017-01-10T20:00:53.361Z,0
2017-01-10T20:11:04.994Z,0
2017-01-10T20:21:16.662Z,0
2017-01-10T20:31:28.309Z,0
2017-01-10T21:12:14.789Z,0
2017-01-10T21:22:26.429Z,0
2017-01-10T21:32:38.090Z,0
2017-01-10T21:42:49.750Z,0
2017-01-10T21:53:01.434Z,0
2017-01-10T22:03:13.142Z,0
2017-01-10T22:13:24.803Z,0
2017-01-10T22:23:36.424Z,0
2017-01-10T22:33:48.096Z,0
2017-01-10T22:43:59.724Z,0
2017-01-10T22:54:11.331Z,0
2017-01-10T23:04:22.932Z,0
2017-01-10T23:14:34.510Z,0
2017-01-10T23:24:46.093Z,0
2017-01-10T23:34:57.669Z,0
2017-01-10T23:45:09.273Z,0
2017-01-10T23:55:20.833Z,0
